Tropical Cyclones
[Index]
Main Index Home Page Stock Weather Photos Extreme Storms Discussion Storm News and Storm Chasing Reports Tropical Cyclones / Hurricanes / Typhoons Weather Data and Links Wild Fires / Bushfires Weather Observation Techniques Weather Picture Catalogue Tornado Pictures and Reports Stock Video Footage and DVDs for sale
Season 2005-2006 Tropical Cyclone BOLOETSE Track Map
Season 2005-2006 Summaries (Operational Data): [AU] [SIO] [SPAC] [SH]
<<- Previous TC | 2005-2006 Season | Next TC ->>

click for intensity scale information  Lat/long Grid: Show Hide

 Date Labels: Show Hide

Operational Tropical Cyclone Data : JTWC Advisories

Name: BOLOETSE
Number: 0609

24 Jan 2006 00:00 UTC to 06 Feb 2006 12:00 UTC

    date/time    lat    long     hPa   cat  kts
2006-01-24 00   17.6    53.4    1007         20          
2006-01-24 06   17.8    52.7    1007         20          
2006-01-24 12   18.5    52.2    1006         20          
2006-01-25 00   18.9    51.0    1002         30          
2006-01-25 06   19.4    50.9     998    1    40          
2006-01-25 12   20.2    50.6     997    1    40          
2006-01-25 18   21.0    50.5     997    1    40          
2006-01-26 00   21.9    50.4     995    1    40          
2006-01-26 06   22.6    50.7     990    2    50          
2006-01-26 12   22.9    50.7     990    2    50          
2006-01-26 18   23.3    50.8     995    1    40          
2006-01-27 00   22.6    50.9     997    1    40          
2006-01-27 06   22.7    51.0     997    1    40          
2006-01-27 12   22.5    50.9     997    1    35          
2006-01-27 18   22.1    50.1     998         30          
2006-01-28 00   21.3    50.4     998         30          
2006-01-28 06   21.5    49.6     999         30          
2006-01-28 12   21.3    49.2    1002         25          
2006-01-28 18   20.9    48.9    1002         25          
2006-01-29 00   20.7    48.2    1004         25          
2006-01-29 06   21.1    46.7    1005         20          
2006-01-29 12   21.0    46.0    1005         20          
2006-01-29 18   21.0    45.2    1005         20          
2006-01-30 00   20.5    44.5    1005         20          
2006-01-30 06   18.5    43.4    1005         20          
2006-01-30 12   17.7    42.6    1005         20          
2006-01-31 00   18.0    41.5    1005         20          
2006-01-31 06   19.5    40.4     999         30          
2006-01-31 12   20.2    39.5     999         30          
2006-01-31 18   20.1    38.5     995    1    35          
2006-02-01 00   20.0    38.6     992    1    40          
2006-02-01 06   19.0    38.1     992    1    40          
2006-02-01 12   19.1    38.1     995    1    35          
2006-02-01 18   19.0    38.3     995    1    35          
2006-02-02 00   19.3    38.6     980    2    55          
2006-02-02 06   19.6    38.6     980    2    55          
2006-02-02 12   19.6    38.5     968    3    65          
2006-02-02 18   20.1    39.0     966    3    70          
2006-02-03 00   20.2    39.2     966    3    70          
2006-02-03 06   20.9    39.9     950    3    80          
2006-02-03 12   21.4    40.7     950    3    85          
2006-02-03 18   22.5    41.7     946    4    90          
2006-02-04 00   23.2    42.4     946    4    90          
2006-02-04 06   23.7    42.9     946    4    90          
2006-02-04 12   25.1    43.9     954    3    80          
2006-02-04 18   25.9    44.7     955    3    80          
2006-02-05 00   26.7    45.2     960    3    75          
2006-02-05 06   28.8    46.5     970    3    65          
2006-02-05 12   30.4    47.9     975    2    55          
2006-02-05 18   32.2    49.9     982    2    55          
2006-02-06 00   33.5    51.8     985    2    55          
2006-02-06 06   35.2    55.2     988    2    55          
2006-02-06 12   37.7    58.6     994    2    50          
Winds are 10-min average.

Tropical cyclone tracks developed by Michael Bath using operational warnings and advisories and Google Maps.


[Australian Severe Weather index] [Copyright Notice] [Email Contacts] [Search This Site] [Privacy Policy]
Document: tropical_cyclone_boloetse.htm Updated: 28 May 2013